createdAt,value
2024-04-30T00:01:06.532Z,6.40
2024-04-30T00:11:11.278Z,3.50
2024-04-30T00:21:18.564Z,4.28
2024-04-30T00:31:23.096Z,3.72
2024-04-30T00:41:30.542Z,5.22
2024-04-30T00:51:35.832Z,3.67
2024-04-30T01:01:43.093Z,3.63
2024-04-30T01:11:48.743Z,3.47
2024-04-30T01:21:56.413Z,3.00
2024-04-30T01:32:04.007Z,5.15
2024-04-30T01:42:09.040Z,3.88
2024-04-30T01:52:16.380Z,3.20
2024-04-30T02:02:21.035Z,3.33
2024-04-30T02:12:28.244Z,8.07
2024-04-30T02:22:32.882Z,4.25
2024-04-30T02:32:56.039Z,4.25
2024-04-30T02:43:00.708Z,3.75
2024-04-30T02:53:08.023Z,4.40
2024-04-30T03:03:12.579Z,7.82
2024-04-30T03:13:20.525Z,6.28
2024-04-30T03:23:25.120Z,5.40
2024-04-30T03:33:32.512Z,5.35
2024-04-30T03:43:41.051Z,4.50
2024-04-30T03:53:48.804Z,4.55
2024-04-30T04:03:53.362Z,5.95
2024-04-30T04:14:16.197Z,7.38
2024-04-30T04:24:20.728Z,4.38
2024-04-30T04:34:28.043Z,7.55
2024-04-30T04:44:32.686Z,6.68
2024-04-30T04:54:40.064Z,6.80
2024-04-30T05:04:44.697Z,6.05
2024-04-30T05:14:55.635Z,7.88
2024-04-30T05:25:00.515Z,7.18
2024-04-30T05:35:10.182Z,7.28
2024-04-30T05:55:21.806Z,6.78
2024-04-30T06:05:26.410Z,15.38
2024-04-30T06:15:33.887Z,6.32
2024-04-30T06:25:38.602Z,6.35
2024-04-30T06:35:45.959Z,6.07
2024-04-30T06:45:51.188Z,6.90
2024-04-30T06:55:58.469Z,7.57
2024-04-30T07:06:03.131Z,5.65
2024-04-30T07:16:10.779Z,6.35
2024-04-30T07:26:18.373Z,4.88
2024-04-30T07:36:26.389Z,5.00
2024-04-30T07:46:30.968Z,5.45
2024-04-30T07:56:38.163Z,5.65
2024-04-30T08:06:42.789Z,5.53
2024-04-30T08:16:50.341Z,4.93
2024-04-30T08:26:54.984Z,4.70
2024-04-30T08:37:02.153Z,7.20
2024-04-30T08:47:07.989Z,4.72
2024-04-30T08:57:15.333Z,3.53
2024-04-30T09:07:19.992Z,6.53
2024-04-30T09:17:28.337Z,5.00
2024-04-30T09:37:40.959Z,4.82
2024-04-30T09:47:46.044Z,3.83
2024-04-30T09:57:53.254Z,3.60
2024-04-30T10:07:58.909Z,3.83
2024-04-30T10:18:07.142Z,4.72
2024-04-30T10:28:16.405Z,5.15
2024-04-30T10:38:24.256Z,5.28
2024-04-30T10:48:29.936Z,4.28
2024-04-30T10:58:37.316Z,5.97
2024-04-30T11:08:41.998Z,10.65
2024-04-30T11:18:49.268Z,5.20
2024-04-30T11:29:08.843Z,4.70
2024-04-30T11:39:21.129Z,5.17
2024-04-30T11:49:25.749Z,4.38
2024-04-30T11:59:33.062Z,4.05
2024-04-30T12:09:37.630Z,5.15
2024-04-30T12:19:45.131Z,6.68
2024-04-30T12:29:50.192Z,8.13
2024-04-30T12:39:57.859Z,8.57
2024-04-30T12:50:02.422Z,9.68
2024-04-30T13:00:11.769Z,7.03
2024-04-30T13:10:17.306Z,7.10
2024-04-30T13:20:24.513Z,4.53
2024-04-30T13:30:29.173Z,6.45
2024-04-30T13:40:37.421Z,5.00
2024-04-30T13:50:41.994Z,6.85
2024-04-30T14:00:49.331Z,4.82
2024-04-30T14:10:54.069Z,6.47
2024-04-30T14:21:01.385Z,9.20
2024-04-30T14:31:06.040Z,9.40
2024-04-30T14:41:14.675Z,5.55
2024-04-30T14:51:19.235Z,5.63
2024-04-30T15:01:26.383Z,12.82
2024-04-30T15:11:31.018Z,8.20
2024-04-30T15:21:38.729Z,15.13
2024-04-30T15:31:43.544Z,6.47
2024-04-30T15:41:50.935Z,12.33
2024-04-30T15:51:55.502Z,6.10
2024-04-30T16:02:02.768Z,11.63
2024-04-30T16:12:07.900Z,6.82
2024-04-30T16:22:15.200Z,7.23
2024-04-30T16:32:19.984Z,10.65
2024-04-30T16:42:27.251Z,9.68
2024-04-30T16:52:31.791Z,7.40
2024-04-30T17:02:40.110Z,7.93
2024-04-30T17:12:44.730Z,5.45
2024-04-30T17:22:51.952Z,6.82
2024-04-30T17:32:56.580Z,11.82
2024-04-30T17:43:03.829Z,11.40
2024-04-30T17:53:08.500Z,8.48
2024-04-30T18:03:15.919Z,7.43
2024-04-30T18:13:20.493Z,6.85
2024-04-30T18:23:27.706Z,9.15
2024-04-30T18:33:32.365Z,8.00
2024-04-30T18:43:41.843Z,9.52
2024-04-30T18:53:46.515Z,8.57
2024-04-30T19:03:53.921Z,9.57
2024-04-30T19:13:58.595Z,6.00
2024-04-30T19:24:05.958Z,9.65
2024-04-30T19:34:11.694Z,13.03
2024-04-30T19:44:19.094Z,14.75
2024-04-30T19:54:23.633Z,9.77
2024-04-30T20:04:31.010Z,17.05
2024-04-30T20:14:35.966Z,15.32
2024-04-30T20:24:43.415Z,11.00
2024-04-30T20:34:48.311Z,9.65
2024-04-30T20:44:56.059Z,12.50
2024-04-30T20:55:00.959Z,12.20
2024-04-30T21:05:09.158Z,9.15
2024-04-30T21:15:14.093Z,10.57
2024-04-30T21:25:23.221Z,11.75
2024-04-30T21:35:28.156Z,15.15
2024-04-30T21:56:03.601Z,13.57
2024-04-30T22:16:51.340Z,16.70
2024-04-30T22:26:58.704Z,15.15
2024-04-30T22:37:04.163Z,10.75
2024-04-30T22:47:14.059Z,12.73
2024-04-30T22:57:18.895Z,11.13
2024-04-30T23:07:26.427Z,10.70
2024-04-30T23:17:31.111Z,15.35
2024-04-30T23:27:38.435Z,16.35
2024-04-30T23:37:43.004Z,13.68
2024-04-30T23:47:51.593Z,15.05
2024-04-30T23:57:56.425Z,17.07
